Lake Sumner, New Mexico
Current Conditions -  °F | °C
As of 6:36 AM on Thursday 23 Oct 2014 (Local Time) from K4MR Reporting Station
Haze Haze  
Wind Chill: 55°   Ceiling: 200
Heat Index: 55°   Visibility: 1mi
Dew Point: 54°   Wind: 9mph
Humidity: 94%   Direction: 230°SW
Pressure: 30.16"   Gusts: NA
Location:  34.3001°N, 104.256°W
Report Text: K4MR 231236Z AUTO 23008KT 1SM BR BKN002 13/12 A3016 RMK AO2 VIS 1V4 BKN V SCT
Loading
Personal Weather Stations






























Interactive Weather Map New forecast layout! Learn more

10-Day Weather Forecast

Advertisements
Track Severe Weather on mobile